LEAM/LEI METAR and TAF weather

Enter ICAO airport designator
Station Type Date Time Source
LEAM METAR 2019/10/15 21:30 UTC NOAA

LEAM 152130Z AUTO 03004KT 350V080 9999 NCD 17/09 Q1021


Station Type Date Time Source
LEAM Decoded METAR 2019/10/15 21:30 UTC NOAA

Almeria / Aeropuerto, Spain (LEAM) 36-51N 002-23W 21M
Oct 15, 2019 - 05:30 PM EDT / 2019.10.15 2130 UTC
Wind: from the NNE (030 degrees) at 5 MPH (4 KT) (direction variable):0
Visibility: greater than 7 mile(s):0
Temperature: 62 F (17 C)
Dew Point: 48 F (9 C)
Relative Humidity: 59%
Pressure (altimeter): 30.15 in. Hg (1021 hPa)
ob: LEAM 152130Z AUTO 03004KT 350V080 9999 NCD 17/09 Q1021
cycle: 21

Station Type Date Time Source
LEAM TAF 2019/10/15 21:30 UTC NOAA

TAF LEAM 152000Z 1521/1621 01006KT CAVOK TX23/1612Z TN14/1605Z
TEMPO 1610/1616 20010KT

Example: see airport list